createdAt,value
2018-07-28T00:01:58.003Z,6.53
2018-07-28T00:04:27.449Z,7.43
2018-07-28T00:06:56.770Z,7.87
2018-07-28T00:09:26.252Z,7.47
2018-07-28T00:11:55.803Z,7.60
2018-07-28T00:14:25.254Z,7.83
2018-07-28T00:16:54.780Z,8.03
2018-07-28T00:19:24.330Z,7.97
2018-07-28T00:21:53.796Z,7.67
2018-07-28T00:24:23.162Z,7.27
2018-07-28T00:26:52.655Z,8.00
2018-07-28T00:29:21.998Z,8.57
2018-07-28T00:31:51.463Z,8.67
2018-07-28T00:34:20.961Z,9.07
2018-07-28T00:36:50.478Z,8.30
2018-07-28T00:39:19.798Z,8.80
2018-07-28T00:41:49.105Z,8.50
2018-07-28T00:44:18.495Z,8.60
2018-07-28T00:46:47.915Z,8.63
2018-07-28T00:49:17.410Z,8.27
2018-07-28T00:51:46.746Z,9.78
2018-07-28T00:54:16.235Z,9.03
2018-07-28T00:56:45.734Z,8.93
2018-07-28T00:59:15.120Z,9.27
2018-07-28T01:01:44.602Z,9.17
2018-07-28T01:04:14.091Z,9.77
2018-07-28T01:06:43.560Z,9.27
2018-07-28T01:09:13.126Z,9.68
2018-07-28T01:11:42.595Z,9.70
2018-07-28T01:14:12.114Z,9.75
2018-07-28T01:16:41.614Z,10.17
2018-07-28T01:19:11.062Z,9.80
2018-07-28T01:21:40.450Z,10.00
2018-07-28T01:24:09.798Z,10.07
2018-07-28T01:26:39.207Z,10.13
2018-07-28T01:29:13.834Z,10.73
2018-07-28T01:31:43.325Z,10.57
2018-07-28T01:34:12.790Z,11.20
2018-07-28T01:36:42.186Z,9.90
2018-07-28T01:39:13.745Z,10.75
2018-07-28T01:41:43.718Z,10.53
2018-07-28T01:44:13.227Z,10.48
2018-07-28T01:46:42.630Z,10.90
2018-07-28T01:49:11.958Z,10.37
2018-07-28T01:51:41.455Z,10.43
2018-07-28T01:57:26.710Z,10.43
2018-07-28T01:59:56.122Z,9.80
2018-07-28T02:02:25.610Z,10.90
2018-07-28T02:04:55.121Z,10.90
2018-07-28T02:07:24.546Z,10.35
2018-07-28T02:09:54.090Z,10.70
2018-07-28T02:12:24.525Z,10.60
2018-07-28T02:14:53.987Z,10.58
2018-07-28T02:17:23.422Z,10.73
2018-07-28T02:19:52.827Z,9.90
2018-07-28T02:22:22.318Z,11.77
2018-07-28T02:24:51.715Z,9.98
2018-07-28T02:27:21.152Z,10.43
2018-07-28T02:29:50.507Z,10.00
2018-07-28T02:32:19.942Z,10.13
2018-07-28T02:34:49.264Z,10.18
2018-07-28T02:37:18.667Z,10.97
2018-07-28T02:39:48.198Z,10.30
2018-07-28T02:42:17.546Z,10.13
2018-07-28T02:44:47.063Z,10.53
2018-07-28T02:47:16.594Z,9.60
2018-07-28T02:49:46.104Z,10.00
2018-07-28T02:52:15.682Z,10.37
2018-07-28T02:54:45.052Z,9.83
2018-07-28T02:57:14.568Z,10.60
2018-07-28T02:59:43.998Z,10.17
2018-07-28T03:02:13.435Z,10.17
2018-07-28T03:04:42.995Z,10.53
2018-07-28T03:07:12.371Z,9.73
2018-07-28T03:09:41.790Z,9.75
2018-07-28T03:12:11.199Z,9.90
2018-07-28T03:14:40.706Z,9.63
2018-07-28T03:17:10.255Z,9.50
2018-07-28T03:19:39.608Z,10.60
2018-07-28T03:22:09.138Z,9.80
2018-07-28T03:24:38.546Z,9.73
2018-07-28T03:27:08.000Z,10.23
2018-07-28T03:29:37.503Z,9.23
2018-07-28T03:32:06.913Z,9.80
2018-07-28T03:34:36.624Z,10.03
2018-07-28T03:37:06.192Z,9.70
2018-07-28T03:39:36.566Z,10.10
2018-07-28T03:42:06.051Z,9.67
2018-07-28T03:44:36.519Z,8.90
2018-07-28T03:50:25.962Z,9.37
2018-07-28T03:52:55.466Z,8.85
2018-07-28T03:55:25.074Z,8.93
2018-07-28T03:57:54.545Z,9.27
2018-07-28T04:00:24.058Z,8.80
2018-07-28T04:02:53.586Z,9.08
2018-07-28T04:05:23.062Z,8.93
2018-07-28T04:07:52.571Z,8.70
2018-07-28T04:10:21.942Z,8.85
2018-07-28T04:12:52.766Z,8.47
2018-07-28T04:15:22.170Z,8.20
2018-07-28T04:17:53.530Z,9.10
2018-07-28T04:20:23.878Z,9.43
2018-07-28T04:22:53.742Z,8.00
2018-07-28T04:27:34.930Z,8.88
2018-07-28T04:30:05.091Z,8.83
2018-07-28T04:32:34.562Z,8.27
2018-07-28T04:35:04.182Z,8.65
2018-07-28T04:37:33.742Z,8.70
2018-07-28T04:40:03.143Z,8.40
2018-07-28T04:42:32.545Z,8.13
2018-07-28T04:45:01.937Z,8.05
2018-07-28T04:47:31.338Z,8.55
2018-07-28T04:50:01.055Z,8.35
2018-07-28T04:52:30.473Z,8.03
2018-07-28T04:55:00.023Z,8.20
2018-07-28T04:57:29.374Z,8.73
2018-07-28T04:59:58.854Z,7.73
2018-07-28T05:02:28.742Z,7.92
2018-07-28T05:04:58.082Z,8.38
2018-07-28T05:07:27.483Z,7.90
2018-07-28T05:09:56.943Z,8.10
2018-07-28T05:12:26.434Z,8.10
2018-07-28T05:14:55.780Z,8.23
2018-07-28T05:17:25.188Z,8.38
2018-07-28T05:19:54.731Z,7.82
2018-07-28T05:22:24.162Z,8.25
2018-07-28T05:24:53.504Z,8.23
2018-07-28T05:27:22.809Z,7.70
2018-07-28T05:29:52.224Z,7.85
2018-07-28T05:32:21.542Z,8.10
2018-07-28T05:34:57.218Z,7.33
2018-07-28T05:37:26.728Z,7.53
2018-07-28T05:39:56.078Z,7.90
2018-07-28T05:42:25.478Z,8.00
2018-07-28T05:44:54.857Z,7.95
2018-07-28T05:47:24.266Z,7.65
2018-07-28T05:49:53.745Z,7.75
2018-07-28T05:52:23.188Z,7.95
2018-07-28T05:54:52.564Z,8.23
2018-07-28T05:57:22.178Z,7.47
2018-07-28T05:59:51.566Z,7.80
2018-07-28T06:02:21.247Z,8.00
2018-07-28T06:04:50.598Z,7.90
2018-07-28T06:07:19.901Z,7.42
2018-07-28T06:09:49.378Z,7.80
2018-07-28T06:12:18.750Z,7.78
2018-07-28T06:14:48.134Z,7.37
2018-07-28T06:17:17.607Z,7.50
2018-07-28T06:19:47.014Z,7.28
2018-07-28T06:22:16.393Z,7.12
2018-07-28T06:24:45.894Z,7.42
2018-07-28T06:27:15.362Z,7.28
2018-07-28T06:29:44.748Z,7.00
2018-07-28T06:32:14.238Z,7.87
2018-07-28T06:34:43.675Z,6.92
2018-07-28T06:37:13.195Z,7.50
2018-07-28T06:39:42.510Z,7.08
2018-07-28T06:42:11.890Z,7.28
2018-07-28T06:44:41.222Z,7.30
2018-07-28T06:47:10.704Z,6.97
2018-07-28T06:49:40.211Z,6.60
2018-07-28T06:52:09.714Z,6.45
2018-07-28T06:54:40.135Z,6.47
2018-07-28T06:57:09.687Z,5.75
2018-07-28T06:59:39.146Z,6.20
2018-07-28T07:02:08.654Z,7.08
2018-07-28T07:04:38.056Z,5.78
2018-07-28T07:07:07.393Z,6.22
2018-07-28T07:09:37.287Z,6.28
2018-07-28T07:12:06.840Z,6.08
2018-07-28T07:14:37.263Z,5.58
2018-07-28T07:17:06.830Z,6.27
2018-07-28T07:19:37.346Z,5.22
2018-07-28T07:22:06.827Z,5.90
2018-07-28T07:24:37.192Z,5.55
2018-07-28T07:27:06.691Z,5.60
2018-07-28T07:29:36.128Z,5.60
2018-07-28T07:32:05.506Z,5.40
2018-07-28T07:34:34.938Z,5.20
2018-07-28T07:37:04.406Z,6.23
2018-07-28T07:39:33.748Z,5.87
2018-07-28T07:42:03.331Z,5.80
2018-07-28T07:44:32.664Z,6.30
2018-07-28T08:08:06.571Z,6.34
2018-07-28T08:10:35.942Z,8.40
2018-07-28T08:13:05.506Z,8.05
2018-07-28T08:15:34.870Z,9.40
2018-07-28T08:18:04.371Z,11.03
2018-07-28T08:20:33.844Z,12.45
2018-07-28T08:23:03.191Z,12.40
2018-07-28T08:25:32.695Z,13.30
2018-07-28T08:28:02.244Z,13.08
2018-07-28T08:30:31.578Z,13.05
2018-07-28T08:33:01.784Z,12.50
2018-07-28T08:35:31.262Z,11.75
2018-07-28T08:38:00.772Z,12.13
2018-07-28T08:40:30.223Z,12.00
2018-07-28T08:42:59.574Z,12.18
2018-07-28T08:45:29.709Z,9.10
2018-07-28T08:47:59.036Z,8.98
2018-07-28T08:50:28.438Z,9.80
2018-07-28T08:52:57.768Z,8.93
2018-07-28T08:55:27.338Z,8.88
2018-07-28T08:57:56.734Z,10.68
2018-07-28T09:00:26.188Z,11.55
2018-07-28T09:02:55.538Z,11.63
2018-07-28T09:05:25.079Z,11.60
2018-07-28T09:07:54.559Z,12.53
2018-07-28T09:10:23.938Z,12.35
2018-07-28T09:12:53.330Z,10.50
2018-07-28T09:15:22.686Z,9.85
2018-07-28T09:17:52.172Z,10.24
2018-07-28T09:20:21.618Z,10.08
2018-07-28T09:22:50.939Z,11.00
2018-07-28T09:25:20.482Z,10.68
2018-07-28T09:47:10.730Z,10.32
2018-07-28T09:49:40.294Z,11.68
2018-07-28T09:54:46.582Z,9.13
2018-07-28T09:57:15.999Z,9.58
2018-07-28T09:59:45.470Z,7.78
2018-07-28T10:02:15.019Z,7.72
2018-07-28T10:04:44.518Z,8.40
2018-07-28T10:07:13.897Z,7.17
2018-07-28T10:09:43.303Z,6.37
2018-07-28T10:12:12.656Z,5.80
2018-07-28T10:14:42.074Z,6.00
2018-07-28T10:17:11.394Z,5.83
2018-07-28T10:19:40.785Z,5.80
2018-07-28T10:22:10.130Z,5.90
2018-07-28T10:24:39.697Z,5.87
2018-07-28T10:27:09.114Z,6.58
2018-07-28T10:29:38.544Z,6.28
2018-07-28T10:32:08.036Z,5.30
2018-07-28T10:34:37.883Z,5.40
2018-07-28T10:37:07.347Z,5.22
2018-07-28T10:39:37.820Z,5.22
2018-07-28T10:42:07.402Z,5.58
2018-07-28T10:44:36.758Z,5.28
2018-07-28T10:47:06.122Z,6.30
2018-07-28T10:49:35.612Z,6.75
2018-07-28T10:52:05.023Z,8.80
2018-07-28T10:54:34.402Z,8.88
2018-07-28T10:57:03.863Z,8.38
2018-07-28T10:59:33.235Z,10.35
2018-07-28T11:02:02.774Z,10.35
2018-07-28T11:04:32.296Z,10.08
2018-07-28T11:07:01.498Z,10.20
2018-07-28T11:09:30.783Z,10.25
2018-07-28T11:12:00.139Z,10.28
2018-07-28T11:14:29.631Z,10.00
2018-07-28T11:16:59.191Z,9.68
2018-07-28T11:19:28.535Z,11.30
2018-07-28T11:21:58.023Z,10.65
2018-07-28T11:24:27.518Z,11.12
2018-07-28T11:26:57.022Z,11.67
2018-07-28T11:29:26.538Z,10.78
2018-07-28T11:32:07.091Z,11.15
2018-07-28T11:34:47.947Z,10.15
2018-07-28T11:38:05.031Z,9.25
2018-07-28T11:40:45.973Z,9.85
2018-07-28T11:43:26.866Z,9.93
2018-07-28T11:45:56.430Z,8.60
2018-07-28T11:48:25.758Z,9.35
2018-07-28T11:50:55.124Z,9.70
2018-07-28T11:53:24.434Z,9.55
2018-07-28T11:55:53.762Z,11.20
2018-07-28T11:58:23.204Z,15.10
2018-07-28T12:00:52.646Z,19.10
2018-07-28T12:03:22.024Z,19.65
2018-07-28T12:05:51.470Z,19.55
2018-07-28T12:08:20.918Z,16.97
2018-07-28T12:10:50.302Z,15.00
2018-07-28T12:13:19.787Z,13.23
2018-07-28T12:15:49.414Z,12.27
2018-07-28T12:18:18.970Z,10.65
2018-07-28T12:20:48.411Z,10.30
2018-07-28T12:23:17.898Z,9.50
2018-07-28T12:25:47.246Z,8.75
2018-07-28T12:28:16.654Z,7.60
2018-07-28T12:30:46.025Z,7.60
2018-07-28T12:33:15.093Z,7.62
2018-07-28T12:35:44.410Z,7.47
2018-07-28T12:38:13.878Z,7.95
2018-07-28T12:40:43.350Z,8.38
2018-07-28T12:43:12.866Z,8.60
2018-07-28T12:45:42.302Z,8.73
2018-07-28T12:48:11.648Z,8.60
2018-07-28T12:50:41.062Z,8.63
2018-07-28T12:53:10.446Z,8.78
2018-07-28T12:55:40.044Z,9.00
2018-07-28T12:58:09.318Z,9.60
2018-07-28T13:00:38.703Z,11.22
2018-07-28T13:03:08.236Z,10.43
2018-07-28T13:05:38.614Z,11.10
2018-07-28T13:08:08.238Z,10.93
2018-07-28T13:10:38.603Z,11.50
2018-07-28T13:13:08.118Z,11.18
2018-07-28T13:35:10.032Z,11.40
2018-07-28T13:37:39.558Z,12.53
2018-07-28T13:40:08.967Z,12.63
2018-07-28T13:42:38.682Z,12.26
2018-07-28T13:45:08.070Z,12.65
2018-07-28T13:47:37.419Z,12.60
2018-07-28T13:50:06.978Z,12.33
2018-07-28T13:52:36.378Z,13.32
2018-07-28T13:55:05.805Z,12.78
2018-07-28T13:57:35.226Z,12.58
2018-07-28T14:00:04.834Z,12.98
2018-07-28T14:02:34.246Z,13.35
2018-07-28T14:05:03.806Z,12.30
2018-07-28T14:07:33.314Z,11.30
2018-07-28T14:10:02.819Z,11.73
2018-07-28T14:12:32.302Z,11.08
2018-07-28T14:15:01.816Z,11.12
2018-07-28T14:17:31.630Z,11.33
2018-07-28T14:20:01.167Z,10.28
2018-07-28T14:22:30.649Z,10.00
2018-07-28T14:25:00.021Z,9.65
2018-07-28T14:27:29.406Z,10.65
2018-07-28T14:29:58.752Z,10.25
2018-07-28T14:32:28.114Z,10.82
2018-07-28T14:34:57.486Z,11.23
2018-07-28T14:37:26.902Z,10.13
2018-07-28T14:39:56.314Z,10.55
2018-07-28T14:42:25.824Z,9.78
2018-07-28T14:44:55.206Z,10.07
2018-07-28T14:47:24.530Z,9.63
2018-07-28T14:49:53.994Z,9.90
2018-07-28T14:52:23.374Z,9.48
2018-07-28T14:54:52.944Z,9.35
2018-07-28T14:57:22.382Z,9.98
2018-07-28T14:59:51.695Z,8.83
2018-07-28T15:02:21.034Z,8.38
2018-07-28T15:04:50.550Z,8.75
2018-07-28T15:07:20.125Z,9.18
2018-07-28T15:09:49.753Z,9.00
2018-07-28T15:12:19.154Z,9.00
2018-07-28T15:14:48.667Z,8.73
2018-07-28T15:17:18.135Z,9.55
2018-07-28T15:19:47.651Z,8.80
2018-07-28T15:22:16.991Z,9.30
2018-07-28T15:24:46.542Z,9.73
2018-07-28T15:27:15.890Z,9.18
2018-07-28T15:29:45.310Z,8.50
2018-07-28T15:32:14.654Z,8.30
2018-07-28T15:34:44.111Z,9.18
2018-07-28T15:37:13.777Z,8.45
2018-07-28T15:39:43.274Z,8.95
2018-07-28T15:42:12.895Z,9.03
2018-07-28T15:44:42.403Z,8.70
2018-07-28T15:47:11.898Z,8.60
2018-07-28T15:49:41.402Z,8.53
2018-07-28T15:52:10.755Z,8.45
2018-07-28T15:54:39.987Z,8.53
2018-07-28T15:57:09.202Z,9.13
2018-07-28T15:59:39.234Z,8.02
2018-07-28T16:02:08.603Z,8.20
2018-07-28T16:04:39.033Z,8.33
2018-07-28T16:07:08.430Z,7.96
2018-07-28T16:09:38.011Z,7.55
2018-07-28T16:12:07.550Z,7.62
2018-07-28T16:14:37.037Z,8.10
2018-07-28T16:17:06.554Z,8.33
2018-07-28T16:19:36.011Z,7.20
2018-07-28T16:22:05.718Z,7.92
2018-07-28T16:24:35.182Z,7.30
2018-07-28T16:27:04.610Z,7.92
2018-07-28T16:29:33.990Z,7.95
2018-07-28T16:32:03.488Z,7.62
2018-07-28T16:34:33.175Z,8.20
2018-07-28T16:37:02.721Z,7.50
2018-07-28T16:39:32.178Z,7.20
2018-07-28T16:42:01.652Z,7.12
2018-07-28T16:44:31.017Z,7.55
2018-07-28T16:47:00.463Z,6.85
2018-07-28T16:49:29.882Z,6.98
2018-07-28T16:51:59.306Z,7.10
2018-07-28T16:54:28.483Z,7.47
2018-07-28T16:56:57.814Z,7.17
2018-07-28T16:59:27.170Z,7.37
2018-07-28T17:01:56.680Z,6.92
2018-07-28T17:04:26.079Z,7.25
2018-07-28T17:06:55.402Z,7.28
2018-07-28T17:09:24.862Z,6.80
2018-07-28T17:11:54.332Z,6.87
2018-07-28T17:14:23.857Z,7.78
2018-07-28T17:16:53.198Z,6.97
2018-07-28T17:19:22.683Z,6.63
2018-07-28T17:21:52.074Z,7.08
2018-07-28T17:24:21.454Z,7.45
2018-07-28T17:26:50.810Z,7.25
2018-07-28T17:29:20.219Z,6.70
2018-07-28T17:31:49.731Z,7.27
2018-07-28T17:34:19.123Z,6.28
2018-07-28T17:36:48.481Z,7.00
2018-07-28T17:39:17.931Z,7.25
2018-07-28T17:41:47.340Z,7.05
2018-07-28T17:44:16.938Z,6.78
2018-07-28T17:46:46.124Z,8.00
2018-07-28T17:49:15.339Z,7.20
2018-07-28T17:51:45.051Z,7.20
2018-07-28T17:54:14.374Z,7.03
2018-07-28T17:56:43.786Z,6.95
2018-07-28T17:59:13.214Z,7.42
2018-07-28T18:01:42.562Z,6.87
2018-07-28T18:04:11.874Z,7.00
2018-07-28T18:06:41.211Z,7.28
2018-07-28T18:09:11.442Z,7.28
2018-07-28T18:11:40.804Z,7.85
2018-07-28T18:14:10.543Z,7.95
2018-07-28T18:16:39.900Z,7.70
2018-07-28T18:19:09.389Z,7.45
2018-07-28T18:21:39.846Z,7.65
2018-07-28T18:24:09.355Z,7.47
2018-07-28T18:26:39.828Z,7.12
2018-07-28T18:29:09.294Z,7.15
2018-07-28T18:31:38.722Z,7.50
2018-07-28T18:34:08.199Z,7.85
2018-07-28T18:36:37.533Z,7.70
2018-07-28T18:39:08.666Z,7.90
2018-07-28T18:41:38.309Z,7.37
2018-07-28T18:44:08.543Z,7.00
2018-07-28T18:46:38.306Z,6.83
2018-07-28T18:49:07.655Z,7.25
2018-07-28T18:51:37.174Z,7.47
2018-07-28T18:54:06.646Z,8.00
2018-07-28T18:56:36.118Z,8.03
2018-07-28T18:59:05.710Z,7.28
2018-07-28T19:01:35.152Z,7.47
2018-07-28T19:04:04.658Z,7.75
2018-07-28T19:06:34.190Z,7.02
2018-07-28T19:09:08.823Z,7.47
2018-07-28T19:11:38.270Z,7.73
2018-07-28T19:14:12.835Z,7.25
2018-07-28T19:16:43.167Z,7.85
2018-07-28T19:19:16.838Z,7.70
2018-07-28T19:21:47.278Z,7.67
2018-07-28T19:24:16.818Z,7.20
2018-07-28T19:26:46.302Z,8.10
2018-07-28T19:29:21.051Z,7.95
2018-07-28T19:31:50.458Z,7.30
2018-07-28T19:34:19.804Z,7.87
2018-07-28T19:36:54.791Z,8.03
2018-07-28T19:39:23.826Z,7.75
2018-07-28T19:41:58.303Z,7.62
2018-07-28T19:44:27.702Z,8.13
2018-07-28T19:46:57.098Z,8.57
2018-07-28T19:49:26.458Z,7.87
2018-07-28T19:51:55.970Z,8.15
2018-07-28T19:54:25.402Z,8.60
2018-07-28T19:56:54.876Z,7.85
2018-07-28T19:59:24.378Z,7.42
2018-07-28T20:01:53.822Z,7.80
2018-07-28T20:04:23.182Z,7.85
2018-07-28T20:06:52.630Z,8.30
2018-07-28T20:09:22.051Z,7.78
2018-07-28T20:11:51.556Z,8.70
2018-07-28T20:14:23.280Z,8.20
2018-07-28T20:16:52.642Z,7.95
2018-07-28T20:19:24.177Z,8.73
2018-07-28T20:21:53.811Z,7.90
2018-07-28T20:24:25.542Z,9.10
2018-07-28T20:26:57.499Z,8.60
2018-07-28T20:29:28.555Z,8.53
2018-07-28T20:31:59.410Z,9.03
2018-07-28T20:34:30.808Z,9.40
2018-07-28T20:37:03.285Z,8.93
2018-07-28T20:39:34.818Z,9.13
2018-07-28T20:42:06.289Z,8.85
2018-07-28T20:44:38.358Z,8.60
2018-07-28T20:47:10.699Z,10.08
2018-07-28T20:49:42.181Z,8.83
2018-07-28T20:52:14.284Z,8.78
2018-07-28T20:54:45.458Z,9.48
2018-07-28T20:57:15.088Z,9.80
2018-07-28T20:59:44.544Z,10.00
2018-07-28T21:02:14.102Z,9.68
2018-07-28T21:04:43.587Z,9.30
2018-07-28T21:07:12.781Z,9.55
2018-07-28T21:09:42.170Z,9.97
2018-07-28T21:12:11.650Z,9.30
2018-07-28T21:14:41.426Z,10.35
2018-07-28T21:17:10.918Z,9.63
2018-07-28T21:19:40.443Z,10.30
2018-07-28T21:22:09.810Z,10.13
2018-07-28T21:24:39.338Z,10.13
2018-07-28T21:27:08.831Z,10.15
2018-07-28T21:29:38.216Z,10.50
2018-07-28T21:32:07.725Z,10.32
2018-07-28T21:34:37.266Z,10.05
2018-07-28T21:37:06.721Z,10.15
2018-07-28T21:39:36.070Z,10.95
2018-07-28T21:42:05.558Z,9.68
2018-07-28T21:44:35.070Z,10.75
2018-07-28T21:47:04.500Z,10.48
2018-07-28T21:49:33.932Z,10.68
2018-07-28T21:52:03.426Z,11.20
2018-07-28T21:54:32.786Z,11.08
2018-07-28T21:57:02.319Z,10.15
2018-07-28T21:59:31.974Z,11.10
2018-07-28T22:02:01.463Z,11.65
2018-07-28T22:04:33.269Z,10.83
2018-07-28T22:07:02.682Z,11.28
2018-07-28T22:09:32.194Z,11.53
2018-07-28T22:12:01.563Z,10.95
2018-07-28T22:14:31.110Z,11.28
2018-07-28T22:17:00.519Z,11.10
2018-07-28T22:19:29.557Z,10.88
2018-07-28T22:21:58.954Z,10.23
2018-07-28T22:24:28.250Z,10.58
2018-07-28T22:26:57.754Z,10.30
2018-07-28T22:29:27.104Z,11.57
2018-07-28T22:31:56.477Z,10.28
2018-07-28T22:34:26.002Z,9.48
2018-07-28T22:36:57.869Z,10.28
2018-07-28T22:39:27.471Z,10.95
2018-07-28T22:41:56.826Z,10.93
2018-07-28T22:44:26.174Z,11.25
2018-07-28T22:46:55.507Z,11.00
2018-07-28T22:49:24.856Z,10.08
2018-07-28T22:51:54.363Z,10.48
2018-07-28T23:08:10.146Z,10.82
2018-07-28T23:10:47.359Z,13.08
2018-07-28T23:13:16.859Z,13.18
2018-07-28T23:15:46.200Z,12.60
2018-07-28T23:18:15.538Z,13.17
2018-07-28T23:20:44.902Z,13.55
2018-07-28T23:23:14.334Z,14.15
2018-07-28T23:25:43.889Z,13.65
2018-07-28T23:28:13.434Z,14.40
2018-07-28T23:30:44.388Z,13.45
2018-07-28T23:33:14.079Z,13.90
2018-07-28T23:35:43.510Z,13.53
2018-07-28T23:38:13.081Z,13.37
2018-07-28T23:40:42.579Z,14.43
2018-07-28T23:43:12.146Z,12.40
2018-07-28T23:45:41.573Z,12.63
2018-07-28T23:48:11.105Z,12.93
2018-07-28T23:50:41.018Z,13.30
2018-07-28T23:53:10.430Z,13.40
2018-07-28T23:55:39.910Z,13.43
2018-07-28T23:58:09.278Z,13.28
